sensor_id;sensor_type;location;lat;lon;timestamp;temperature;humidity
53904;DHT22;39812;52.430;16.936;2023-10-13T00:01:55;11.10;99.90
53904;DHT22;39812;52.430;16.936;2023-10-13T00:04:24;11.10;99.90
53904;DHT22;39812;52.430;16.936;2023-10-13T00:06:56;11.10;99.90
53904;DHT22;39812;52.430;16.936;2023-10-13T00:09:23;11.10;99.90
53904;DHT22;39812;52.430;16.936;2023-10-13T00:11:58;11.20;99.90
53904;DHT22;39812;52.430;16.936;2023-10-13T00:14:23;11.30;99.90
53904;DHT22;39812;52.430;16.936;2023-10-13T00:16:57;11.30;99.90
53904;DHT22;39812;52.430;16.936;2023-10-13T00:19:45;11.30;99.90
53904;DHT22;39812;52.430;16.936;2023-10-13T00:22:12;11.30;99.90
53904;DHT22;39812;52.430;16.936;2023-10-13T00:24:39;11.30;99.90
53904;DHT22;39812;52.430;16.936;2023-10-13T00:27:15;11.40;99.90
53904;DHT22;39812;52.430;16.936;2023-10-13T00:29:57;11.40;99.90
53904;DHT22;39812;52.430;16.936;2023-10-13T00:32:45;11.40;99.90
53904;DHT22;39812;52.430;16.936;2023-10-13T00:35:12;11.40;99.90
53904;DHT22;39812;52.430;16.936;2023-10-13T00:37:57;11.40;99.90
53904;DHT22;39812;52.430;16.936;2023-10-13T00:40:25;11.50;99.90
53904;DHT22;39812;52.430;16.936;2023-10-13T00:42:57;11.50;99.90
53904;DHT22;39812;52.430;16.936;2023-10-13T00:45:45;11.50;99.90
53904;DHT22;39812;52.430;16.936;2023-10-13T00:48:14;11.50;99.90
53904;DHT22;39812;52.430;16.936;2023-10-13T00:50:41;11.50;99.90
53904;DHT22;39812;52.430;16.936;2023-10-13T00:53:11;11.50;99.90
53904;DHT22;39812;52.430;16.936;2023-10-13T00:55:37;11.40;99.90
53904;DHT22;39812;52.430;16.936;2023-10-13T00:58:06;11.40;99.90
53904;DHT22;39812;52.430;16.936;2023-10-13T01:00:33;11.50;99.90
53904;DHT22;39812;52.430;16.936;2023-10-13T01:03:11;11.40;99.90
53904;DHT22;39812;52.430;16.936;2023-10-13T01:05:39;11.40;99.90
53904;DHT22;39812;52.430;16.936;2023-10-13T01:08:05;11.40;99.90
53904;DHT22;39812;52.430;16.936;2023-10-13T01:10:35;11.50;99.90
53904;DHT22;39812;52.430;16.936;2023-10-13T01:13:03;11.50;99.90
53904;DHT22;39812;52.430;16.936;2023-10-13T01:15:28;11.50;99.90
53904;DHT22;39812;52.430;16.936;2023-10-13T01:18:09;11.50;99.90
53904;DHT22;39812;52.430;16.936;2023-10-13T01:20:42;11.40;99.90
53904;DHT22;39812;52.430;16.936;2023-10-13T01:23:18;11.40;99.90
53904;DHT22;39812;52.430;16.936;2023-10-13T01:25:44;11.40;99.90
53904;DHT22;39812;52.430;16.936;2023-10-13T01:28:11;11.40;99.90
53904;DHT22;39812;52.430;16.936;2023-10-13T01:30:41;11.40;99.90
53904;DHT22;39812;52.430;16.936;2023-10-13T01:33:07;11.40;99.90
53904;DHT22;39812;52.430;16.936;2023-10-13T01:35:34;11.50;99.90
53904;DHT22;39812;52.430;16.936;2023-10-13T01:38:13;11.50;99.90
53904;DHT22;39812;52.430;16.936;2023-10-13T01:40:39;11.50;99.90
53904;DHT22;39812;52.430;16.936;2023-10-13T01:43:04;11.50;99.90
53904;DHT22;39812;52.430;16.936;2023-10-13T01:45:30;11.50;99.90
53904;DHT22;39812;52.430;16.936;2023-10-13T01:47:56;11.40;99.90
53904;DHT22;39812;52.430;16.936;2023-10-13T01:50:22;11.40;99.90
53904;DHT22;39812;52.430;16.936;2023-10-13T01:52:55;11.50;99.90
53904;DHT22;39812;52.430;16.936;2023-10-13T01:55:40;11.50;99.90
53904;DHT22;39812;52.430;16.936;2023-10-13T01:58:12;11.40;99.90
53904;DHT22;39812;52.430;16.936;2023-10-13T02:00:42;11.40;99.90
53904;DHT22;39812;52.430;16.936;2023-10-13T02:03:09;11.50;99.90
53904;DHT22;39812;52.430;16.936;2023-10-13T02:05:44;11.50;99.90
53904;DHT22;39812;52.430;16.936;2023-10-13T02:08:19;11.50;99.90
53904;DHT22;39812;52.430;16.936;2023-10-13T02:10:53;11.50;99.90
53904;DHT22;39812;52.430;16.936;2023-10-13T02:13:21;11.50;99.90
53904;DHT22;39812;52.430;16.936;2023-10-13T02:15:49;11.50;99.90
53904;DHT22;39812;52.430;16.936;2023-10-13T02:18:19;11.60;99.90
53904;DHT22;39812;52.430;16.936;2023-10-13T02:21:03;11.60;99.90
53904;DHT22;39812;52.430;16.936;2023-10-13T02:23:38;11.60;99.90
53904;DHT22;39812;52.430;16.936;2023-10-13T02:26:08;11.60;99.90
53904;DHT22;39812;52.430;16.936;2023-10-13T02:28:56;11.60;99.90
53904;DHT22;39812;52.430;16.936;2023-10-13T02:31:23;11.60;99.90
53904;DHT22;39812;52.430;16.936;2023-10-13T02:33:49;11.60;99.90
53904;DHT22;39812;52.430;16.936;2023-10-13T02:36:15;11.60;99.90
53904;DHT22;39812;52.430;16.936;2023-10-13T02:38:49;11.60;99.90
53904;DHT22;39812;52.430;16.936;2023-10-13T02:41:19;11.70;99.90
53904;DHT22;39812;52.430;16.936;2023-10-13T02:43:52;11.70;99.90
53904;DHT22;39812;52.430;16.936;2023-10-13T02:46:19;11.70;99.90
53904;DHT22;39812;52.430;16.936;2023-10-13T02:48:47;11.70;99.90
53904;DHT22;39812;52.430;16.936;2023-10-13T02:51:19;11.70;99.90
53904;DHT22;39812;52.430;16.936;2023-10-13T02:53:47;11.70;99.90
53904;DHT22;39812;52.430;16.936;2023-10-13T02:56:18;11.70;99.90
53904;DHT22;39812;52.430;16.936;2023-10-13T02:58:49;11.80;99.90
53904;DHT22;39812;52.430;16.936;2023-10-13T03:01:34;11.70;99.90
53904;DHT22;39812;52.430;16.936;2023-10-13T03:04:04;11.70;99.90
53904;DHT22;39812;52.430;16.936;2023-10-13T03:06:34;11.70;99.90
53904;DHT22;39812;52.430;16.936;2023-10-13T03:09:03;11.70;99.90
53904;DHT22;39812;52.430;16.936;2023-10-13T03:11:44;11.70;99.90
53904;DHT22;39812;52.430;16.936;2023-10-13T03:14:15;11.80;99.90
53904;DHT22;39812;52.430;16.936;2023-10-13T03:16:55;11.70;99.90
53904;DHT22;39812;52.430;16.936;2023-10-13T03:19:21;11.70;99.90
53904;DHT22;39812;52.430;16.936;2023-10-13T03:21:47;11.70;99.90
53904;DHT22;39812;52.430;16.936;2023-10-13T03:24:23;11.70;99.90
53904;DHT22;39812;52.430;16.936;2023-10-13T03:27:00;11.70;99.90
53904;DHT22;39812;52.430;16.936;2023-10-13T03:29:38;11.70;99.90
53904;DHT22;39812;52.430;16.936;2023-10-13T03:32:12;11.70;99.90
53904;DHT22;39812;52.430;16.936;2023-10-13T03:34:43;11.80;99.90
53904;DHT22;39812;52.430;16.936;2023-10-13T03:37:17;11.80;99.90
53904;DHT22;39812;52.430;16.936;2023-10-13T03:39:54;11.80;99.90
53904;DHT22;39812;52.430;16.936;2023-10-13T03:42:19;11.80;99.90
53904;DHT22;39812;52.430;16.936;2023-10-13T03:44:47;11.80;99.90
53904;DHT22;39812;52.430;16.936;2023-10-13T03:47:13;11.80;99.90
53904;DHT22;39812;52.430;16.936;2023-10-13T03:49:55;11.80;99.90
53904;DHT22;39812;52.430;16.936;2023-10-13T03:52:40;11.80;99.90
53904;DHT22;39812;52.430;16.936;2023-10-13T03:55:07;11.90;99.90
53904;DHT22;39812;52.430;16.936;2023-10-13T03:57:32;11.80;99.90
53904;DHT22;39812;52.430;16.936;2023-10-13T04:00:05;11.80;99.90
53904;DHT22;39812;52.430;16.936;2023-10-13T04:02:35;11.80;99.90
53904;DHT22;39812;52.430;16.936;2023-10-13T04:05:02;11.80;99.90
53904;DHT22;39812;52.430;16.936;2023-10-13T04:07:35;11.80;99.90
53904;DHT22;39812;52.430;16.936;2023-10-13T04:10:00;11.80;99.90
53904;DHT22;39812;52.430;16.936;2023-10-13T04:13:04;11.80;99.90
53904;DHT22;39812;52.430;16.936;2023-10-13T04:15:48;11.80;99.90
53904;DHT22;39812;52.430;16.936;2023-10-13T04:18:46;11.70;99.90
53904;DHT22;39812;52.430;16.936;2023-10-13T04:21:21;11.70;99.90
53904;DHT22;39812;52.430;16.936;2023-10-13T04:24:09;11.70;99.90
53904;DHT22;39812;52.430;16.936;2023-10-13T04:26:54;11.70;99.90
53904;DHT22;39812;52.430;16.936;2023-10-13T04:29:41;11.70;99.90
53904;DHT22;39812;52.430;16.936;2023-10-13T04:32:22;11.70;99.90
53904;DHT22;39812;52.430;16.936;2023-10-13T04:35:12;11.80;99.90
53904;DHT22;39812;52.430;16.936;2023-10-13T04:37:37;11.70;99.90
53904;DHT22;39812;52.430;16.936;2023-10-13T04:40:21;11.70;99.90
53904;DHT22;39812;52.430;16.936;2023-10-13T04:42:51;11.70;99.90
53904;DHT22;39812;52.430;16.936;2023-10-13T04:45:21;11.70;99.90
53904;DHT22;39812;52.430;16.936;2023-10-13T04:47:56;11.70;99.90
53904;DHT22;39812;52.430;16.936;2023-10-13T04:50:42;11.70;99.90
53904;DHT22;39812;52.430;16.936;2023-10-13T04:53:14;11.70;99.90
53904;DHT22;39812;52.430;16.936;2023-10-13T04:56:00;11.80;99.90
53904;DHT22;39812;52.430;16.936;2023-10-13T04:58:29;11.90;99.90
53904;DHT22;39812;52.430;16.936;2023-10-13T05:01:15;11.80;99.90
53904;DHT22;39812;52.430;16.936;2023-10-13T05:03:50;11.90;99.90
53904;DHT22;39812;52.430;16.936;2023-10-13T05:06:19;11.90;99.90
53904;DHT22;39812;52.430;16.936;2023-10-13T05:09:04;11.90;99.90
53904;DHT22;39812;52.430;16.936;2023-10-13T05:11:48;11.90;99.90
53904;DHT22;39812;52.430;16.936;2023-10-13T05:14:32;12.00;99.90
53904;DHT22;39812;52.430;16.936;2023-10-13T05:17:16;12.00;99.90
53904;DHT22;39812;52.430;16.936;2023-10-13T05:20:00;12.00;99.90
53904;DHT22;39812;52.430;16.936;2023-10-13T05:22:44;12.00;99.90
53904;DHT22;39812;52.430;16.936;2023-10-13T05:25:29;12.00;99.90
53904;DHT22;39812;52.430;16.936;2023-10-13T05:28:13;12.10;99.90
53904;DHT22;39812;52.430;16.936;2023-10-13T05:31:00;12.10;99.90
53904;DHT22;39812;52.430;16.936;2023-10-13T05:33:44;12.10;99.90
53904;DHT22;39812;52.430;16.936;2023-10-13T05:36:28;12.10;99.90
53904;DHT22;39812;52.430;16.936;2023-10-13T05:39:12;12.20;99.90
53904;DHT22;39812;52.430;16.936;2023-10-13T05:41:57;12.20;99.90
53904;DHT22;39812;52.430;16.936;2023-10-13T05:44:41;12.30;99.90
53904;DHT22;39812;52.430;16.936;2023-10-13T05:47:26;12.40;99.90
53904;DHT22;39812;52.430;16.936;2023-10-13T05:50:14;12.40;99.90
53904;DHT22;39812;52.430;16.936;2023-10-13T05:52:46;12.40;99.90
53904;DHT22;39812;52.430;16.936;2023-10-13T05:55:28;12.40;99.90
53904;DHT22;39812;52.430;16.936;2023-10-13T05:58:13;12.50;99.90
53904;DHT22;39812;52.430;16.936;2023-10-13T06:00:57;12.50;99.90
53904;DHT22;39812;52.430;16.936;2023-10-13T06:03:41;12.50;99.90
53904;DHT22;39812;52.430;16.936;2023-10-13T06:06:26;12.50;99.90
53904;DHT22;39812;52.430;16.936;2023-10-13T06:09:10;12.40;99.90
53904;DHT22;39812;52.430;16.936;2023-10-13T06:11:54;12.50;99.90
53904;DHT22;39812;52.430;16.936;2023-10-13T06:14:39;12.50;99.90
53904;DHT22;39812;52.430;16.936;2023-10-13T06:17:24;12.60;99.90
53904;DHT22;39812;52.430;16.936;2023-10-13T06:20:08;12.60;99.90
53904;DHT22;39812;52.430;16.936;2023-10-13T06:22:52;12.60;99.90
53904;DHT22;39812;52.430;16.936;2023-10-13T06:25:38;12.70;99.90
53904;DHT22;39812;52.430;16.936;2023-10-13T06:28:22;12.70;99.90
53904;DHT22;39812;52.430;16.936;2023-10-13T06:31:07;12.80;99.90
53904;DHT22;39812;52.430;16.936;2023-10-13T06:33:36;13.00;99.90
53904;DHT22;39812;52.430;16.936;2023-10-13T06:36:07;13.20;99.90
53904;DHT22;39812;52.430;16.936;2023-10-13T06:38:36;13.40;99.90
53904;DHT22;39812;52.430;16.936;2023-10-13T06:41:03;13.50;99.90
53904;DHT22;39812;52.430;16.936;2023-10-13T06:43:35;13.50;99.90
53904;DHT22;39812;52.430;16.936;2023-10-13T06:46:09;13.50;99.90
53904;DHT22;39812;52.430;16.936;2023-10-13T06:48:40;13.50;99.90
53904;DHT22;39812;52.430;16.936;2023-10-13T06:51:07;13.50;99.90
53904;DHT22;39812;52.430;16.936;2023-10-13T06:53:52;13.50;99.90
53904;DHT22;39812;52.430;16.936;2023-10-13T06:56:22;13.40;99.90
53904;DHT22;39812;52.430;16.936;2023-10-13T06:58:49;13.40;99.90
53904;DHT22;39812;52.430;16.936;2023-10-13T07:01:14;13.30;99.90
53904;DHT22;39812;52.430;16.936;2023-10-13T07:03:48;13.30;99.90
53904;DHT22;39812;52.430;16.936;2023-10-13T07:06:21;13.30;99.90
53904;DHT22;39812;52.430;16.936;2023-10-13T07:08:47;13.30;99.90
53904;DHT22;39812;52.430;16.936;2023-10-13T07:11:28;13.40;99.90
53904;DHT22;39812;52.430;16.936;2023-10-13T07:14:03;13.50;99.90
53904;DHT22;39812;52.430;16.936;2023-10-13T07:17:05;13.50;99.90
53904;DHT22;39812;52.430;16.936;2023-10-13T07:19:33;13.60;99.90
53904;DHT22;39812;52.430;16.936;2023-10-13T07:22:01;13.70;99.90
53904;DHT22;39812;52.430;16.936;2023-10-13T07:24:46;13.80;99.90
53904;DHT22;39812;52.430;16.936;2023-10-13T07:27:24;13.90;99.90
53904;DHT22;39812;52.430;16.936;2023-10-13T07:29:54;14.00;99.90
53904;DHT22;39812;52.430;16.936;2023-10-13T07:32:38;14.00;99.90
53904;DHT22;39812;52.430;16.936;2023-10-13T07:35:20;14.10;99.90
53904;DHT22;39812;52.430;16.936;2023-10-13T07:37:49;14.20;99.90
53904;DHT22;39812;52.430;16.936;2023-10-13T07:40:18;14.30;99.90
53904;DHT22;39812;52.430;16.936;2023-10-13T07:42:52;14.50;99.90
53904;DHT22;39812;52.430;16.936;2023-10-13T07:45:21;14.50;99.90
53904;DHT22;39812;52.430;16.936;2023-10-13T07:47:51;14.50;99.90
53904;DHT22;39812;52.430;16.936;2023-10-13T07:50:16;14.70;99.90
53904;DHT22;39812;52.430;16.936;2023-10-13T07:52:51;14.60;99.90
53904;DHT22;39812;52.430;16.936;2023-10-13T07:55:47;14.60;99.90
53904;DHT22;39812;52.430;16.936;2023-10-13T07:58:13;14.60;99.90
53904;DHT22;39812;52.430;16.936;2023-10-13T08:00:39;14.80;99.90
53904;DHT22;39812;52.430;16.936;2023-10-13T08:03:11;14.70;99.90
53904;DHT22;39812;52.430;16.936;2023-10-13T08:05:43;14.80;99.90
53904;DHT22;39812;52.430;16.936;2023-10-13T08:08:26;14.80;99.90
53904;DHT22;39812;52.430;16.936;2023-10-13T08:11:01;14.70;99.90
53904;DHT22;39812;52.430;16.936;2023-10-13T08:13:35;14.90;99.90
53904;DHT22;39812;52.430;16.936;2023-10-13T08:16:03;14.80;99.90
53904;DHT22;39812;52.430;16.936;2023-10-13T08:18:35;14.90;99.90
53904;DHT22;39812;52.430;16.936;2023-10-13T08:21:02;14.90;99.90
53904;DHT22;39812;52.430;16.936;2023-10-13T08:23:32;15.00;99.90
53904;DHT22;39812;52.430;16.936;2023-10-13T08:26:26;15.00;99.90
53904;DHT22;39812;52.430;16.936;2023-10-13T08:29:02;15.10;99.90
53904;DHT22;39812;52.430;16.936;2023-10-13T08:31:43;15.20;99.90
53904;DHT22;39812;52.430;16.936;2023-10-13T08:34:15;15.30;99.90
53904;DHT22;39812;52.430;16.936;2023-10-13T08:36:48;15.30;99.90
53904;DHT22;39812;52.430;16.936;2023-10-13T08:39:14;15.50;99.90
53904;DHT22;39812;52.430;16.936;2023-10-13T08:41:58;15.60;99.90
53904;DHT22;39812;52.430;16.936;2023-10-13T08:44:44;15.70;99.90
53904;DHT22;39812;52.430;16.936;2023-10-13T08:47:13;15.90;99.90
53904;DHT22;39812;52.430;16.936;2023-10-13T08:49:44;16.00;99.90
53904;DHT22;39812;52.430;16.936;2023-10-13T08:52:17;16.10;99.90
53904;DHT22;39812;52.430;16.936;2023-10-13T08:55:02;16.30;99.90
53904;DHT22;39812;52.430;16.936;2023-10-13T08:57:46;16.50;99.90
53904;DHT22;39812;52.430;16.936;2023-10-13T09:00:15;16.60;99.90
53904;DHT22;39812;52.430;16.936;2023-10-13T09:03:06;16.80;99.90
53904;DHT22;39812;52.430;16.936;2023-10-13T09:05:51;16.90;99.90
53904;DHT22;39812;52.430;16.936;2023-10-13T09:08:27;17.10;99.90
53904;DHT22;39812;52.430;16.936;2023-10-13T09:11:10;17.10;99.90
53904;DHT22;39812;52.430;16.936;2023-10-13T09:13:39;17.50;99.90
53904;DHT22;39812;52.430;16.936;2023-10-13T09:16:14;17.80;99.90
53904;DHT22;39812;52.430;16.936;2023-10-13T09:19:02;17.80;99.90
53904;DHT22;39812;52.430;16.936;2023-10-13T09:21:38;17.80;99.90
53904;DHT22;39812;52.430;16.936;2023-10-13T09:24:04;17.90;99.90
53904;DHT22;39812;52.430;16.936;2023-10-13T09:26:53;18.20;99.90
53904;DHT22;39812;52.430;16.936;2023-10-13T09:29:22;18.50;99.90
53904;DHT22;39812;52.430;16.936;2023-10-13T09:32:02;18.80;99.90
53904;DHT22;39812;52.430;16.936;2023-10-13T09:34:28;19.00;99.90
53904;DHT22;39812;52.430;16.936;2023-10-13T09:36:59;19.30;99.90
53904;DHT22;39812;52.430;16.936;2023-10-13T09:39:28;19.00;99.90
53904;DHT22;39812;52.430;16.936;2023-10-13T09:42:05;18.80;99.90
53904;DHT22;39812;52.430;16.936;2023-10-13T09:44:36;18.90;99.90
53904;DHT22;39812;52.430;16.936;2023-10-13T09:47:03;19.20;99.90
53904;DHT22;39812;52.430;16.936;2023-10-13T09:49:39;19.40;99.90
53904;DHT22;39812;52.430;16.936;2023-10-13T09:52:18;19.50;99.90
53904;DHT22;39812;52.430;16.936;2023-10-13T09:55:08;19.40;99.90
53904;DHT22;39812;52.430;16.936;2023-10-13T09:57:37;19.60;99.90
53904;DHT22;39812;52.430;16.936;2023-10-13T10:00:21;19.40;99.90
53904;DHT22;39812;52.430;16.936;2023-10-13T10:03:06;19.40;99.90
53904;DHT22;39812;52.430;16.936;2023-10-13T10:06:02;19.50;99.90
53904;DHT22;39812;52.430;16.936;2023-10-13T10:08:33;20.00;99.90
53904;DHT22;39812;52.430;16.936;2023-10-13T10:11:19;20.00;99.30
53904;DHT22;39812;52.430;16.936;2023-10-13T10:19:16;20.50;98.50
53904;DHT22;39812;52.430;16.936;2023-10-13T10:21:43;20.50;98.20
53904;DHT22;39812;52.430;16.936;2023-10-13T10:24:16;20.60;98.10
53904;DHT22;39812;52.430;16.936;2023-10-13T10:26:53;20.50;98.10
53904;DHT22;39812;52.430;16.936;2023-10-13T10:29:19;20.60;97.70
53904;DHT22;39812;52.430;16.936;2023-10-13T10:31:45;20.70;97.60
53904;DHT22;39812;52.430;16.936;2023-10-13T10:34:14;20.50;97.50
53904;DHT22;39812;52.430;16.936;2023-10-13T10:36:46;20.60;97.30
53904;DHT22;39812;52.430;16.936;2023-10-13T10:39:12;20.60;97.30
53904;DHT22;39812;52.430;16.936;2023-10-13T10:41:38;20.70;97.30
53904;DHT22;39812;52.430;16.936;2023-10-13T10:44:10;20.60;97.10
53904;DHT22;39812;52.430;16.936;2023-10-13T10:46:41;20.90;96.70
53904;DHT22;39812;52.430;16.936;2023-10-13T10:49:08;21.00;96.40
53904;DHT22;39812;52.430;16.936;2023-10-13T10:51:40;20.90;96.30
53904;DHT22;39812;52.430;16.936;2023-10-13T10:54:18;21.00;96.00
53904;DHT22;39812;52.430;16.936;2023-10-13T10:56:45;20.70;96.20
53904;DHT22;39812;52.430;16.936;2023-10-13T10:59:18;20.80;96.40
53904;DHT22;39812;52.430;16.936;2023-10-13T11:01:45;20.80;96.10
53904;DHT22;39812;52.430;16.936;2023-10-13T11:04:16;20.40;96.60
53904;DHT22;39812;52.430;16.936;2023-10-13T11:06:50;20.30;97.10
53904;DHT22;39812;52.430;16.936;2023-10-13T11:09:30;20.00;97.70
53904;DHT22;39812;52.430;16.936;2023-10-13T11:14:32;20.00;97.90
53904;DHT22;39812;52.430;16.936;2023-10-13T11:16:58;20.00;98.00
53904;DHT22;39812;52.430;16.936;2023-10-13T11:19:35;20.00;98.20
53904;DHT22;39812;52.430;16.936;2023-10-13T11:22:11;20.00;98.30
53904;DHT22;39812;52.430;16.936;2023-10-13T11:25:00;20.00;98.20
53904;DHT22;39812;52.430;16.936;2023-10-13T11:27:31;19.90;98.50
53904;DHT22;39812;52.430;16.936;2023-10-13T11:30:10;19.90;98.50
53904;DHT22;39812;52.430;16.936;2023-10-13T11:32:39;20.00;98.60
53904;DHT22;39812;52.430;16.936;2023-10-13T11:35:11;19.90;98.50
53904;DHT22;39812;52.430;16.936;2023-10-13T11:37:52;19.80;98.60
53904;DHT22;39812;52.430;16.936;2023-10-13T11:40:38;19.80;99.00
53904;DHT22;39812;52.430;16.936;2023-10-13T11:43:25;19.80;98.90
53904;DHT22;39812;52.430;16.936;2023-10-13T11:45:51;19.90;98.80
53904;DHT22;39812;52.430;16.936;2023-10-13T11:48:26;20.10;98.60
53904;DHT22;39812;52.430;16.936;2023-10-13T11:51:04;20.00;98.90
53904;DHT22;39812;52.430;16.936;2023-10-13T11:53:36;20.20;98.70
53904;DHT22;39812;52.430;16.936;2023-10-13T11:56:05;20.30;98.70
53904;DHT22;39812;52.430;16.936;2023-10-13T11:58:37;20.40;98.50
53904;DHT22;39812;52.430;16.936;2023-10-13T12:01:03;20.40;98.20
53904;DHT22;39812;52.430;16.936;2023-10-13T12:03:42;20.30;98.40
53904;DHT22;39812;52.430;16.936;2023-10-13T12:06:27;20.50;98.40
53904;DHT22;39812;52.430;16.936;2023-10-13T12:08:59;20.50;98.30
53904;DHT22;39812;52.430;16.936;2023-10-13T12:11:37;20.40;98.10
53904;DHT22;39812;52.430;16.936;2023-10-13T12:14:08;20.50;98.30
53904;DHT22;39812;52.430;16.936;2023-10-13T12:16:45;20.40;98.30
53904;DHT22;39812;52.430;16.936;2023-10-13T12:19:21;20.60;98.30
53904;DHT22;39812;52.430;16.936;2023-10-13T12:21:55;20.90;97.90
53904;DHT22;39812;52.430;16.936;2023-10-13T12:24:26;21.10;97.50
53904;DHT22;39812;52.430;16.936;2023-10-13T12:27:01;21.20;97.10
53904;DHT22;39812;52.430;16.936;2023-10-13T12:29:27;21.20;97.20
53904;DHT22;39812;52.430;16.936;2023-10-13T12:32:00;20.80;97.30
53904;DHT22;39812;52.430;16.936;2023-10-13T12:34:38;20.70;98.00
53904;DHT22;39812;52.430;16.936;2023-10-13T12:37:27;20.70;98.10
53904;DHT22;39812;52.430;16.936;2023-10-13T12:40:10;20.80;97.90
53904;DHT22;39812;52.430;16.936;2023-10-13T12:42:54;20.80;97.60
53904;DHT22;39812;52.430;16.936;2023-10-13T12:45:42;20.50;97.90
53904;DHT22;39812;52.430;16.936;2023-10-13T12:48:28;20.50;98.10
53904;DHT22;39812;52.430;16.936;2023-10-13T12:51:12;20.40;98.40
53904;DHT22;39812;52.430;16.936;2023-10-13T12:53:54;20.30;98.60
53904;DHT22;39812;52.430;16.936;2023-10-13T12:56:21;20.20;98.70
53904;DHT22;39812;52.430;16.936;2023-10-13T12:58:54;20.10;98.90
53904;DHT22;39812;52.430;16.936;2023-10-13T13:01:24;20.10;99.00
53904;DHT22;39812;52.430;16.936;2023-10-13T13:03:51;20.20;98.70
53904;DHT22;39812;52.430;16.936;2023-10-13T13:06:23;20.40;98.40
53904;DHT22;39812;52.430;16.936;2023-10-13T13:11:17;20.20;98.10
53904;DHT22;39812;52.430;16.936;2023-10-13T13:13:43;20.10;98.30
53904;DHT22;39812;52.430;16.936;2023-10-13T13:16:12;20.00;98.50
53904;DHT22;39812;52.430;16.936;2023-10-13T13:18:37;19.90;98.30
53904;DHT22;39812;52.430;16.936;2023-10-13T13:21:03;19.90;98.30
53904;DHT22;39812;52.430;16.936;2023-10-13T13:23:31;19.80;98.50
53904;DHT22;39812;52.430;16.936;2023-10-13T13:25:57;19.80;98.50
53904;DHT22;39812;52.430;16.936;2023-10-13T13:28:23;19.80;98.50
53904;DHT22;39812;52.430;16.936;2023-10-13T13:30:50;19.90;98.30
53904;DHT22;39812;52.430;16.936;2023-10-13T13:33:16;20.00;98.20
53904;DHT22;39812;52.430;16.936;2023-10-13T13:39:07;20.30;97.50
53904;DHT22;39812;52.430;16.936;2023-10-13T13:41:32;20.40;97.10
53904;DHT22;39812;52.430;16.936;2023-10-13T13:43:58;20.30;97.20
53904;DHT22;39812;52.430;16.936;2023-10-13T13:46:38;20.30;97.20
53904;DHT22;39812;52.430;16.936;2023-10-13T13:49:07;20.30;97.30
53904;DHT22;39812;52.430;16.936;2023-10-13T13:51:33;20.20;97.40
53904;DHT22;39812;52.430;16.936;2023-10-13T13:53:59;20.10;97.60
53904;DHT22;39812;52.430;16.936;2023-10-13T13:56:25;20.10;97.90
53904;DHT22;39812;52.430;16.936;2023-10-13T13:58:53;20.00;97.80
53904;DHT22;39812;52.430;16.936;2023-10-13T14:01:19;20.00;98.00
53904;DHT22;39812;52.430;16.936;2023-10-13T14:03:49;20.00;98.00
53904;DHT22;39812;52.430;16.936;2023-10-13T14:06:21;20.00;97.90
53904;DHT22;39812;52.430;16.936;2023-10-13T14:08:53;20.10;98.00
53904;DHT22;39812;52.430;16.936;2023-10-13T14:11:26;20.00;98.10
53904;DHT22;39812;52.430;16.936;2023-10-13T14:14:11;20.00;98.10
53904;DHT22;39812;52.430;16.936;2023-10-13T14:16:46;19.80;98.40
53904;DHT22;39812;52.430;16.936;2023-10-13T14:19:14;19.80;98.50
53904;DHT22;39812;52.430;16.936;2023-10-13T14:21:52;19.70;98.60
53904;DHT22;39812;52.430;16.936;2023-10-13T14:24:19;19.70;98.90
53904;DHT22;39812;52.430;16.936;2023-10-13T14:26:53;19.70;98.90
53904;DHT22;39812;52.430;16.936;2023-10-13T14:29:19;19.60;99.00
53904;DHT22;39812;52.430;16.936;2023-10-13T14:31:45;19.60;99.20
53904;DHT22;39812;52.430;16.936;2023-10-13T14:34:14;19.60;99.10
53904;DHT22;39812;52.430;16.936;2023-10-13T14:36:40;19.60;99.20
53904;DHT22;39812;52.430;16.936;2023-10-13T14:39:06;19.60;99.40
53904;DHT22;39812;52.430;16.936;2023-10-13T14:41:36;19.50;99.50
53904;DHT22;39812;52.430;16.936;2023-10-13T14:44:03;19.50;99.50
53904;DHT22;39812;52.430;16.936;2023-10-13T14:46:32;19.50;99.60
53904;DHT22;39812;52.430;16.936;2023-10-13T14:49:01;19.60;99.50
53904;DHT22;39812;52.430;16.936;2023-10-13T14:51:28;19.60;99.70
53904;DHT22;39812;52.430;16.936;2023-10-13T14:53:54;19.50;99.80
53904;DHT22;39812;52.430;16.936;2023-10-13T14:56:22;19.50;99.90
53904;DHT22;39812;52.430;16.936;2023-10-13T14:58:51;19.50;99.90
53904;DHT22;39812;52.430;16.936;2023-10-13T15:01:23;19.50;99.90
53904;DHT22;39812;52.430;16.936;2023-10-13T15:03:52;19.50;99.90
53904;DHT22;39812;52.430;16.936;2023-10-13T15:06:24;19.50;99.90
53904;DHT22;39812;52.430;16.936;2023-10-13T15:08:52;19.50;99.90
53904;DHT22;39812;52.430;16.936;2023-10-13T15:11:20;19.40;99.90
53904;DHT22;39812;52.430;16.936;2023-10-13T15:13:46;19.30;99.90
53904;DHT22;39812;52.430;16.936;2023-10-13T15:16:20;19.40;99.90
53904;DHT22;39812;52.430;16.936;2023-10-13T15:18:48;19.40;99.90
53904;DHT22;39812;52.430;16.936;2023-10-13T15:21:25;19.30;99.90
53904;DHT22;39812;52.430;16.936;2023-10-13T15:24:03;19.30;99.90
53904;DHT22;39812;52.430;16.936;2023-10-13T15:26:30;19.40;99.90
53904;DHT22;39812;52.430;16.936;2023-10-13T15:28:57;19.50;99.90
53904;DHT22;39812;52.430;16.936;2023-10-13T15:31:26;19.60;99.90
53904;DHT22;39812;52.430;16.936;2023-10-13T15:34:04;19.80;99.90
53904;DHT22;39812;52.430;16.936;2023-10-13T15:36:42;19.90;99.90
53904;DHT22;39812;52.430;16.936;2023-10-13T15:39:11;20.00;99.90
53904;DHT22;39812;52.430;16.936;2023-10-13T15:41:41;19.90;99.90
53904;DHT22;39812;52.430;16.936;2023-10-13T15:44:12;19.80;99.90
53904;DHT22;39812;52.430;16.936;2023-10-13T15:46:39;19.70;99.90
53904;DHT22;39812;52.430;16.936;2023-10-13T15:49:05;19.60;99.90
53904;DHT22;39812;52.430;16.936;2023-10-13T15:51:32;19.50;99.90
53904;DHT22;39812;52.430;16.936;2023-10-13T15:54:04;19.30;99.90
53904;DHT22;39812;52.430;16.936;2023-10-13T15:56:36;19.10;99.90
53904;DHT22;39812;52.430;16.936;2023-10-13T15:59:04;19.00;99.90
53904;DHT22;39812;52.430;16.936;2023-10-13T16:01:32;18.80;99.90
53904;DHT22;39812;52.430;16.936;2023-10-13T16:04:00;18.70;99.90
53904;DHT22;39812;52.430;16.936;2023-10-13T16:06:32;18.70;99.90
53904;DHT22;39812;52.430;16.936;2023-10-13T16:08:58;18.60;99.90
53904;DHT22;39812;52.430;16.936;2023-10-13T16:11:24;18.60;99.90